createdAt,value
2023-05-14T00:01:00.394Z,100877.53
2023-05-14T00:03:29.138Z,100889.31
2023-05-14T00:05:58.549Z,100856.53
2023-05-14T00:08:26.234Z,100877.72
2023-05-14T00:10:53.566Z,100858.66
2023-05-14T00:13:20.893Z,100886.66
2023-05-14T00:15:48.498Z,100876.03
2023-05-14T00:18:16.024Z,100874.56
2023-05-14T00:20:43.431Z,100867.41
2023-05-14T00:23:10.991Z,100874.50
2023-05-14T00:25:38.317Z,100867.19
2023-05-14T00:28:05.939Z,100891.97
2023-05-14T00:30:33.533Z,100883.63
2023-05-14T00:33:03.960Z,100859.59
2023-05-14T00:35:32.008Z,100860.38
2023-05-14T00:37:59.202Z,100885.09
2023-05-14T00:40:27.817Z,100896.34
2023-05-14T00:42:56.080Z,100859.09
2023-05-14T00:45:23.731Z,100871.34
2023-05-14T00:47:51.380Z,100874.19
2023-05-14T00:50:19.266Z,100881.03
2023-05-14T00:52:47.597Z,100876.56
2023-05-14T00:55:17.056Z,100890.97
2023-05-14T00:57:44.909Z,100891.31
2023-05-14T01:00:12.669Z,100877.53
2023-05-14T01:02:40.141Z,100894.78
2023-05-14T01:05:09.626Z,100884.84
2023-05-14T01:07:52.323Z,100879.72
2023-05-14T01:10:32.816Z,100870.75
2023-05-14T01:13:08.685Z,100884.34
2023-05-14T01:15:38.396Z,100881.38
2023-05-14T01:18:17.524Z,100879.88
2023-05-14T01:20:46.292Z,100866.44
2023-05-14T01:23:13.659Z,100811.25
2023-05-14T01:25:42.337Z,100868.78
2023-05-14T01:28:19.296Z,100892.47
2023-05-14T01:31:12.343Z,100878.72
2023-05-14T01:33:44.047Z,100855.00
2023-05-14T01:36:11.377Z,100869.59
2023-05-14T01:38:39.809Z,100861.31
2023-05-14T01:41:07.521Z,100874.22
2023-05-14T01:43:35.749Z,100894.28
2023-05-14T01:46:05.112Z,100861.81
2023-05-14T01:48:33.105Z,100874.56
2023-05-14T01:51:01.059Z,100874.72
2023-05-14T01:53:28.501Z,100871.91
2023-05-14T01:55:55.840Z,100887.50
2023-05-14T01:58:23.072Z,100875.22
2023-05-14T02:00:50.843Z,100886.34
2023-05-14T02:03:18.196Z,100887.81
2023-05-14T02:05:46.162Z,100891.47
2023-05-14T02:08:13.857Z,100871.56
2023-05-14T02:10:41.277Z,100870.09
2023-05-14T02:13:09.786Z,100872.72
2023-05-14T02:15:37.178Z,100871.88
2023-05-14T02:18:06.375Z,100880.31
2023-05-14T02:20:34.182Z,100883.00
2023-05-14T02:23:01.462Z,100893.75
2023-05-14T02:25:29.921Z,100898.59
2023-05-14T02:27:57.500Z,100893.94
2023-05-14T02:30:26.721Z,100892.13
2023-05-14T02:32:57.337Z,100897.59
2023-05-14T02:35:25.049Z,100881.53
2023-05-14T02:37:52.617Z,100865.28
2023-05-14T02:40:20.165Z,100900.59
2023-05-14T02:42:48.153Z,100870.75
2023-05-14T02:45:15.420Z,100882.53
2023-05-14T02:47:44.461Z,100876.88
2023-05-14T02:50:17.427Z,100865.59
2023-05-14T02:52:48.288Z,100836.94
2023-05-14T02:58:08.960Z,100885.28
2023-05-14T03:00:47.773Z,100851.81
2023-05-14T03:03:16.332Z,100811.03
2023-05-14T03:05:45.199Z,100863.53
2023-05-14T03:08:18.674Z,100797.56
2023-05-14T03:10:47.997Z,100850.56
2023-05-14T03:13:18.202Z,100903.75
2023-05-14T03:15:47.632Z,100882.84
2023-05-14T03:18:15.378Z,100891.16
2023-05-14T03:20:43.006Z,100900.75
2023-05-14T03:23:12.113Z,100893.13
2023-05-14T03:25:39.449Z,100899.25
2023-05-14T03:28:07.889Z,100899.22
2023-05-14T03:30:35.091Z,100908.34
2023-05-14T03:33:02.627Z,100914.16
2023-05-14T03:35:30.015Z,100891.94
2023-05-14T03:37:59.468Z,100897.41
2023-05-14T03:40:27.618Z,100926.47
2023-05-14T03:42:55.044Z,100934.25
2023-05-14T03:45:22.834Z,100931.09
2023-05-14T03:47:50.453Z,100906.75
2023-05-14T03:50:17.705Z,100921.16
2023-05-14T03:52:46.220Z,100929.47
2023-05-14T03:55:15.855Z,100939.75
2023-05-14T03:57:43.216Z,100919.19
2023-05-14T04:00:12.026Z,100922.03
2023-05-14T04:02:45.356Z,100929.84
2023-05-14T04:05:13.695Z,100941.66
2023-05-14T04:07:41.229Z,100935.22
2023-05-14T04:10:09.005Z,100925.44
2023-05-14T04:12:36.657Z,100903.25
2023-05-14T04:15:04.777Z,100929.91
2023-05-14T04:17:34.895Z,100915.50
2023-05-14T04:20:02.688Z,100929.91
2023-05-14T04:22:30.488Z,100927.59
2023-05-14T04:25:00.740Z,100923.78
2023-05-14T04:27:38.303Z,100896.59
2023-05-14T04:30:07.444Z,100890.97
2023-05-14T04:32:34.989Z,100916.81
2023-05-14T04:35:04.540Z,100927.56
2023-05-14T04:37:33.245Z,100926.72
2023-05-14T04:40:01.055Z,100907.03
2023-05-14T04:42:28.704Z,100912.78
2023-05-14T04:44:55.990Z,100909.00
2023-05-14T04:47:23.556Z,100925.31
2023-05-14T04:49:50.804Z,100911.56
2023-05-14T04:52:18.072Z,100899.41
2023-05-14T04:54:48.354Z,100892.41
2023-05-14T04:57:24.333Z,100911.59
2023-05-14T04:59:51.889Z,100848.69
2023-05-14T05:02:29.467Z,100789.72
2023-05-14T05:04:57.240Z,100848.59
2023-05-14T05:07:26.650Z,100921.97
2023-05-14T05:09:54.125Z,100857.28
2023-05-14T05:12:42.172Z,100940.22
2023-05-14T05:15:16.872Z,100942.13
2023-05-14T05:17:56.613Z,100929.13
2023-05-14T05:20:25.467Z,100911.25
2023-05-14T05:22:53.000Z,100875.63
2023-05-14T05:25:20.437Z,100874.16
2023-05-14T05:27:48.256Z,100910.72
2023-05-14T05:30:16.196Z,100837.22
2023-05-14T05:32:43.643Z,100910.16
2023-05-14T05:35:11.245Z,100849.56
2023-05-14T05:37:38.712Z,100932.91
2023-05-14T05:40:08.148Z,100931.03
2023-05-14T05:42:36.028Z,100935.09
2023-05-14T05:45:03.650Z,100941.28
2023-05-14T05:47:34.302Z,100935.91
2023-05-14T05:50:01.514Z,100912.78
2023-05-14T05:52:30.149Z,100938.09
2023-05-14T05:54:57.487Z,100904.56
2023-05-14T05:57:27.239Z,100905.31
2023-05-14T05:59:54.619Z,100910.66
2023-05-14T06:02:22.200Z,100926.13
2023-05-14T06:04:49.522Z,100905.84
2023-05-14T06:07:17.135Z,100926.88
2023-05-14T06:09:44.282Z,100905.63
2023-05-14T06:12:13.975Z,100917.94
2023-05-14T06:14:42.069Z,100918.38
2023-05-14T06:17:09.527Z,100916.03
2023-05-14T06:19:40.548Z,100925.38
2023-05-14T06:22:08.102Z,100908.47
2023-05-14T06:24:35.417Z,100915.44
2023-05-14T06:27:02.639Z,100900.00
2023-05-14T06:29:30.100Z,100914.50
2023-05-14T06:32:02.127Z,100918.84
2023-05-14T06:34:30.121Z,100905.38
2023-05-14T06:36:57.714Z,100860.22
2023-05-14T06:39:26.984Z,100928.47
2023-05-14T06:41:54.152Z,100909.16
2023-05-14T06:44:26.344Z,100920.44
2023-05-14T06:46:53.717Z,100889.97
2023-05-14T06:49:21.561Z,100913.00
2023-05-14T06:51:49.632Z,100927.22
2023-05-14T06:54:17.202Z,100927.13
2023-05-14T06:56:44.481Z,100919.53
2023-05-14T06:59:11.952Z,100931.22
2023-05-14T07:01:39.341Z,100894.38
2023-05-14T07:04:11.037Z,100904.75
2023-05-14T07:06:38.503Z,100908.72
2023-05-14T07:09:07.530Z,100919.56
2023-05-14T07:11:34.835Z,100900.44
2023-05-14T07:14:02.134Z,100912.16
2023-05-14T07:16:29.517Z,100902.38
2023-05-14T07:18:58.860Z,100904.31
2023-05-14T07:21:26.494Z,100890.41
2023-05-14T07:23:53.742Z,100893.34
2023-05-14T07:26:24.615Z,100903.56
2023-05-14T07:28:52.638Z,100899.84
2023-05-14T07:31:19.976Z,100900.56
2023-05-14T07:33:48.063Z,100904.69
2023-05-14T07:36:15.416Z,100887.66
2023-05-14T07:38:43.669Z,100905.06
2023-05-14T07:41:12.393Z,100904.44
2023-05-14T07:43:40.698Z,100891.97
2023-05-14T07:46:09.971Z,100895.91
2023-05-14T07:48:37.426Z,100903.41
2023-05-14T07:51:04.858Z,100892.72
2023-05-14T07:53:32.121Z,100896.84
2023-05-14T07:56:00.337Z,100898.91
2023-05-14T07:58:29.115Z,100868.06
2023-05-14T08:00:57.090Z,100902.78
2023-05-14T08:03:25.139Z,100885.19
2023-05-14T08:05:52.809Z,100878.31
2023-05-14T08:08:20.258Z,100889.78
2023-05-14T08:10:47.378Z,100874.19
2023-05-14T08:13:14.758Z,100869.63
2023-05-14T08:15:42.093Z,100861.66
2023-05-14T08:18:09.343Z,100869.53
2023-05-14T08:20:37.553Z,100887.81
2023-05-14T08:23:04.952Z,100873.09
2023-05-14T08:25:33.799Z,100879.84
2023-05-14T08:28:02.608Z,100891.84
2023-05-14T08:30:29.875Z,100861.97
2023-05-14T08:32:58.592Z,100860.25
2023-05-14T08:35:26.212Z,100876.00
2023-05-14T08:37:53.552Z,100881.31
2023-05-14T08:40:21.872Z,100859.88
2023-05-14T08:42:51.745Z,100882.97
2023-05-14T08:45:21.477Z,100868.19
2023-05-14T08:47:51.028Z,100864.91
2023-05-14T08:50:22.609Z,100874.81
2023-05-14T08:52:51.485Z,100836.25
2023-05-14T08:55:20.405Z,100828.84
2023-05-14T08:57:48.969Z,100871.03
2023-05-14T09:00:16.608Z,100837.00
2023-05-14T09:02:45.101Z,100848.34
2023-05-14T09:05:12.780Z,100848.44
2023-05-14T09:07:40.145Z,100819.13
2023-05-14T09:10:09.371Z,100831.53
2023-05-14T09:12:36.751Z,100835.75
2023-05-14T09:15:04.841Z,100892.41
2023-05-14T09:17:34.126Z,100854.03
2023-05-14T09:20:01.739Z,100852.94
2023-05-14T09:22:35.263Z,100842.22
2023-05-14T09:25:06.863Z,100854.31
2023-05-14T09:27:34.945Z,100843.03
2023-05-14T09:30:13.690Z,100862.19
2023-05-14T09:32:49.715Z,100868.63
2023-05-14T09:35:26.653Z,100887.34
2023-05-14T09:37:55.474Z,100863.06
2023-05-14T09:40:25.130Z,100876.94
2023-05-14T09:42:53.025Z,100887.13
2023-05-14T09:45:20.488Z,100868.13
2023-05-14T09:47:48.209Z,100844.25
2023-05-14T09:50:16.248Z,100846.66
2023-05-14T09:52:43.619Z,100831.66
2023-05-14T09:55:11.146Z,100852.97
2023-05-14T09:57:38.677Z,100852.03
2023-05-14T10:00:10.461Z,100822.03
2023-05-14T10:02:38.995Z,100835.16
2023-05-14T10:05:07.959Z,100820.97
2023-05-14T10:07:49.661Z,100838.69
2023-05-14T10:10:20.040Z,100838.47
2023-05-14T10:12:58.099Z,100826.13
2023-05-14T10:15:51.660Z,100822.81
2023-05-14T10:18:23.122Z,100814.66
2023-05-14T10:21:04.804Z,100802.59
2023-05-14T10:23:32.563Z,100810.72
2023-05-14T10:26:01.018Z,100816.28
2023-05-14T10:28:28.691Z,100822.16
2023-05-14T10:30:55.992Z,100829.25
2023-05-14T10:33:23.489Z,100831.69
2023-05-14T10:35:58.166Z,100828.94
2023-05-14T10:38:30.111Z,100829.13
2023-05-14T10:41:02.648Z,100801.66
2023-05-14T10:43:31.569Z,100818.66
2023-05-14T10:46:00.948Z,100808.13
2023-05-14T10:48:28.641Z,100801.38
2023-05-14T10:50:57.699Z,100810.34
2023-05-14T10:53:46.493Z,100819.38
2023-05-14T10:56:14.746Z,100823.66
2023-05-14T10:58:44.397Z,100832.47
2023-05-14T11:01:13.823Z,100812.03
2023-05-14T11:03:46.109Z,100816.72
2023-05-14T11:06:16.254Z,100828.31
2023-05-14T11:08:45.692Z,100823.00
2023-05-14T11:11:13.305Z,100826.78
2023-05-14T11:13:42.094Z,100808.56
2023-05-14T11:16:22.468Z,100826.59
2023-05-14T11:19:02.971Z,100837.06
2023-05-14T11:21:32.660Z,100842.75
2023-05-14T11:24:01.193Z,100817.06
2023-05-14T11:26:28.739Z,100826.78
2023-05-14T11:28:56.098Z,100826.44
2023-05-14T11:31:24.389Z,100817.66
2023-05-14T11:33:53.745Z,100842.38
2023-05-14T11:36:21.104Z,100823.25
2023-05-14T11:38:52.737Z,100841.81
2023-05-14T11:41:23.116Z,100825.34
2023-05-14T11:43:51.134Z,100839.72
2023-05-14T11:46:18.994Z,100839.34
2023-05-14T11:48:46.451Z,100825.34
2023-05-14T11:51:13.940Z,100812.31
2023-05-14T11:53:41.385Z,100830.97
2023-05-14T11:56:09.984Z,100804.66
2023-05-14T11:58:37.670Z,100823.63
2023-05-14T12:01:05.188Z,100824.91
2023-05-14T12:03:33.236Z,100800.00
2023-05-14T12:06:02.783Z,100821.66
2023-05-14T12:08:31.726Z,100829.53
2023-05-14T12:11:00.810Z,100810.88
2023-05-14T12:13:31.806Z,100797.00
2023-05-14T12:16:02.366Z,100816.72
2023-05-14T12:18:32.331Z,100847.81
2023-05-14T12:21:04.218Z,100882.03
2023-05-14T12:23:33.390Z,100890.25
2023-05-14T12:26:07.187Z,100871.09
2023-05-14T12:28:37.528Z,100869.44
2023-05-14T12:31:05.095Z,100823.34
2023-05-14T12:33:32.498Z,100839.03
2023-05-14T12:36:20.571Z,100844.63
2023-05-14T12:38:58.301Z,100827.31
2023-05-14T12:41:28.714Z,100807.34
2023-05-14T12:43:56.081Z,100800.09
2023-05-14T12:46:24.285Z,100822.19
2023-05-14T12:48:53.324Z,100817.03
2023-05-14T12:51:21.325Z,100803.50
2023-05-14T12:53:49.459Z,100762.19
2023-05-14T12:56:16.798Z,100815.88
2023-05-14T12:58:43.966Z,100789.66
2023-05-14T13:01:11.200Z,100789.88
2023-05-14T13:03:40.200Z,100775.22
2023-05-14T13:06:08.345Z,100766.25
2023-05-14T13:08:35.867Z,100779.50
2023-05-14T13:11:03.117Z,100764.06
2023-05-14T13:13:31.320Z,100801.19
2023-05-14T13:15:58.560Z,100781.16
2023-05-14T13:18:26.724Z,100805.84
2023-05-14T13:20:54.299Z,100801.09
2023-05-14T13:23:22.922Z,100777.72
2023-05-14T13:25:50.993Z,100785.59
2023-05-14T13:28:18.298Z,100790.31
2023-05-14T13:31:05.778Z,100779.75
2023-05-14T13:33:38.264Z,100800.44
2023-05-14T13:36:05.926Z,100789.16
2023-05-14T13:38:33.266Z,100788.38
2023-05-14T13:41:03.435Z,100764.03
2023-05-14T13:43:32.675Z,100787.06
2023-05-14T13:46:03.451Z,100772.31
2023-05-14T13:48:35.145Z,100771.13
2023-05-14T13:51:02.497Z,100782.34
2023-05-14T13:53:30.639Z,100774.88
2023-05-14T13:55:58.722Z,100784.22
2023-05-14T13:58:27.828Z,100802.41
2023-05-14T14:00:55.243Z,100799.25
2023-05-14T14:03:22.791Z,100782.03
2023-05-14T14:05:52.339Z,100788.34
2023-05-14T14:08:23.959Z,100800.91
2023-05-14T14:10:54.585Z,100806.59
2023-05-14T14:13:23.505Z,100773.00
2023-05-14T14:15:53.014Z,100802.66
2023-05-14T14:18:20.361Z,100801.03
2023-05-14T14:20:48.100Z,100803.94
2023-05-14T14:23:18.064Z,100792.94
2023-05-14T14:25:45.403Z,100809.81
2023-05-14T14:28:12.670Z,100765.06
2023-05-14T14:30:40.089Z,100799.72
2023-05-14T14:33:07.804Z,100792.22
2023-05-14T14:35:37.764Z,100796.22
2023-05-14T14:38:06.619Z,100772.25
2023-05-14T14:40:34.862Z,100787.41
2023-05-14T14:43:03.063Z,100789.06
2023-05-14T14:45:30.589Z,100793.19
2023-05-14T14:48:23.041Z,100813.34
2023-05-14T14:50:50.861Z,100805.59
2023-05-14T14:53:19.338Z,100812.97
2023-05-14T14:55:48.094Z,100790.34
2023-05-14T14:58:15.499Z,100811.91
2023-05-14T15:00:43.673Z,100787.41
2023-05-14T15:03:11.208Z,100748.81
2023-05-14T15:05:39.580Z,100807.41
2023-05-14T15:08:06.885Z,100783.56
2023-05-14T15:10:38.060Z,100791.56
2023-05-14T15:13:06.925Z,100790.16
2023-05-14T15:15:36.093Z,100794.13
2023-05-14T15:18:07.764Z,100775.06
2023-05-14T15:20:35.437Z,100777.19
2023-05-14T15:23:03.759Z,100807.72
2023-05-14T15:25:31.194Z,100804.50
2023-05-14T15:27:58.460Z,100743.75
2023-05-14T15:30:25.824Z,100774.75
2023-05-14T15:32:53.796Z,100769.94
2023-05-14T15:35:21.248Z,100782.19
2023-05-14T15:37:49.048Z,100788.94
2023-05-14T15:40:19.278Z,100794.19
2023-05-14T15:43:07.285Z,100788.91
2023-05-14T15:45:35.050Z,100784.13
2023-05-14T15:48:02.534Z,100790.34
2023-05-14T15:50:30.359Z,100792.75
2023-05-14T15:53:00.515Z,100801.44
2023-05-14T15:55:28.124Z,100796.19
2023-05-14T15:57:55.448Z,100800.91
2023-05-14T16:00:22.890Z,100795.88
2023-05-14T16:02:52.677Z,100791.75
2023-05-14T16:05:20.137Z,100804.31
2023-05-14T16:07:47.303Z,100807.38
2023-05-14T16:10:17.344Z,100807.50
2023-05-14T16:12:44.580Z,100809.69
2023-05-14T16:15:11.992Z,100805.03
2023-05-14T16:17:40.192Z,100804.38
2023-05-14T16:20:08.249Z,100813.28
2023-05-14T16:22:37.437Z,100819.13
2023-05-14T16:25:05.088Z,100820.50
2023-05-14T16:27:34.686Z,100809.34
2023-05-14T16:30:04.601Z,100812.63
2023-05-14T16:32:35.106Z,100803.19
2023-05-14T16:35:05.120Z,100800.28
2023-05-14T16:37:35.065Z,100817.66
2023-05-14T16:40:03.536Z,100780.59
2023-05-14T16:42:36.127Z,100793.97
2023-05-14T16:45:06.221Z,100802.22
2023-05-14T16:47:35.938Z,100824.63
2023-05-14T16:50:03.513Z,100809.09
2023-05-14T16:52:33.566Z,100807.25
2023-05-14T16:55:01.097Z,100806.16
2023-05-14T16:57:34.368Z,100821.91
2023-05-14T17:00:04.597Z,100830.06
2023-05-14T17:02:36.817Z,100814.69
2023-05-14T17:05:06.374Z,100819.44
2023-05-14T17:07:33.753Z,100830.97
2023-05-14T17:10:03.593Z,100824.28
2023-05-14T17:12:31.352Z,100815.31
2023-05-14T17:14:58.641Z,100814.28
2023-05-14T17:17:26.111Z,100837.47
2023-05-14T17:19:53.371Z,100840.75
2023-05-14T17:22:20.759Z,100834.34
2023-05-14T17:24:49.030Z,100829.13
2023-05-14T17:27:16.795Z,100836.19
2023-05-14T17:29:44.794Z,100835.72
2023-05-14T17:32:14.770Z,100824.19
2023-05-14T17:34:42.837Z,100742.91
2023-05-14T17:37:13.667Z,100812.06
2023-05-14T17:39:41.614Z,100785.09
2023-05-14T17:42:12.530Z,100861.91
2023-05-14T17:44:40.424Z,100749.66
2023-05-14T17:47:11.957Z,100813.59
2023-05-14T17:49:39.487Z,100764.50
2023-05-14T17:52:12.478Z,100813.31
2023-05-14T17:54:45.160Z,100838.44
2023-05-14T17:57:12.667Z,100724.56
2023-05-14T17:59:40.083Z,100789.09
2023-05-14T18:02:10.443Z,100846.88
2023-05-14T18:04:37.657Z,100844.66
2023-05-14T18:07:05.268Z,100846.66
2023-05-14T18:09:32.462Z,100831.03
2023-05-14T18:11:59.828Z,100839.16
2023-05-14T18:14:27.378Z,100842.47
2023-05-14T18:16:56.023Z,100843.91
2023-05-14T18:19:23.973Z,100833.53
2023-05-14T18:21:51.244Z,100838.78
2023-05-14T18:24:18.671Z,100834.63
2023-05-14T18:26:47.200Z,100835.63
2023-05-14T18:29:18.842Z,100856.06
2023-05-14T18:31:46.110Z,100834.91
2023-05-14T18:34:13.456Z,100828.06
2023-05-14T18:36:41.256Z,100836.22
2023-05-14T18:39:08.741Z,100810.53
2023-05-14T18:41:35.982Z,100843.97
2023-05-14T18:44:05.948Z,100828.69
2023-05-14T18:46:33.368Z,100854.25
2023-05-14T18:49:00.666Z,100827.28
2023-05-14T18:51:28.137Z,100785.56
2023-05-14T18:53:55.390Z,100824.00
2023-05-14T18:56:22.654Z,100851.16
2023-05-14T18:58:49.990Z,100840.28
2023-05-14T19:01:17.194Z,100842.88
2023-05-14T19:03:44.544Z,100843.59
2023-05-14T19:06:12.006Z,100854.56
2023-05-14T19:08:39.721Z,100818.69
2023-05-14T19:11:07.042Z,100826.06
2023-05-14T19:13:34.398Z,100838.84
2023-05-14T19:16:04.827Z,100798.31
2023-05-14T19:18:32.451Z,100799.38
2023-05-14T19:21:00.242Z,100784.84
2023-05-14T19:23:27.390Z,100829.44
2023-05-14T19:25:55.604Z,100814.09
2023-05-14T19:28:23.027Z,100811.50
2023-05-14T19:30:51.372Z,100817.25
2023-05-14T19:33:18.703Z,100814.75
2023-05-14T19:35:46.717Z,100804.66
2023-05-14T19:38:15.095Z,100819.75
2023-05-14T19:40:45.027Z,100812.88
2023-05-14T19:43:12.597Z,100797.03
2023-05-14T19:45:43.859Z,100817.78
2023-05-14T19:48:14.727Z,100805.69
2023-05-14T19:50:42.129Z,100801.53
2023-05-14T19:53:09.505Z,100805.19
2023-05-14T19:55:41.651Z,100808.00
2023-05-14T19:58:09.396Z,100767.28
2023-05-14T20:00:37.213Z,100755.84
2023-05-14T20:03:07.685Z,100824.22
2023-05-14T20:05:35.407Z,100802.81
2023-05-14T20:08:06.653Z,100793.03
2023-05-14T20:10:34.070Z,100809.91
2023-05-14T20:13:02.703Z,100814.28
2023-05-14T20:15:30.012Z,100789.91
2023-05-14T20:17:58.840Z,100831.75
2023-05-14T20:20:32.915Z,100808.34
2023-05-14T20:23:00.764Z,100799.69
2023-05-14T20:25:28.697Z,100805.88
2023-05-14T20:27:56.284Z,100834.59
2023-05-14T20:30:23.741Z,100826.44
2023-05-14T20:32:51.501Z,100801.53
2023-05-14T20:35:21.801Z,100805.19
2023-05-14T20:37:49.616Z,100791.66
2023-05-14T20:40:17.256Z,100800.13
2023-05-14T20:42:44.556Z,100785.03
2023-05-14T20:45:12.118Z,100784.84
2023-05-14T20:47:41.276Z,100788.34
2023-05-14T20:50:09.400Z,100784.22
2023-05-14T20:52:36.666Z,100775.94
2023-05-14T20:55:05.562Z,100793.72
2023-05-14T20:57:33.967Z,100779.19
2023-05-14T21:00:02.667Z,100795.56
2023-05-14T21:02:37.464Z,100779.72
2023-05-14T21:05:05.157Z,100770.16
2023-05-14T21:07:33.167Z,100765.03
2023-05-14T21:10:00.712Z,100775.78
2023-05-14T21:12:28.377Z,100761.97
2023-05-14T21:14:55.783Z,100791.03
2023-05-14T21:17:24.723Z,100785.38
2023-05-14T21:19:52.036Z,100758.72
2023-05-14T21:22:19.350Z,100781.63
2023-05-14T21:24:49.317Z,100764.16
2023-05-14T21:27:16.723Z,100761.50
2023-05-14T21:29:46.615Z,100760.31
2023-05-14T21:32:14.046Z,100776.28
2023-05-14T21:34:41.256Z,100760.34
2023-05-14T21:37:08.649Z,100779.38
2023-05-14T21:39:36.064Z,100755.28
2023-05-14T21:42:03.306Z,100759.50
2023-05-14T21:44:31.115Z,100768.84
2023-05-14T21:46:58.288Z,100758.84
2023-05-14T21:49:25.953Z,100743.72
2023-05-14T21:51:54.796Z,100737.78
2023-05-14T21:54:22.106Z,100742.41
2023-05-14T21:56:50.011Z,100765.63
2023-05-14T21:59:17.522Z,100753.00
2023-05-14T22:04:15.154Z,100733.66
2023-05-14T22:06:42.855Z,100755.84
2023-05-14T22:09:11.322Z,100739.31
2023-05-14T22:11:38.557Z,100756.66
2023-05-14T22:14:06.344Z,100746.06
2023-05-14T22:16:34.371Z,100742.81
2023-05-14T22:19:01.749Z,100735.31
2023-05-14T22:21:30.311Z,100761.41
2023-05-14T22:23:58.508Z,100753.06
2023-05-14T22:26:25.969Z,100725.94
2023-05-14T22:28:56.051Z,100737.88
2023-05-14T22:31:23.564Z,100746.25
2023-05-14T22:33:52.304Z,100748.66
2023-05-14T22:36:19.883Z,100729.31
2023-05-14T22:38:47.126Z,100726.25
2023-05-14T22:41:14.739Z,100748.88
2023-05-14T22:43:42.041Z,100720.31
2023-05-14T22:46:10.279Z,100741.63
2023-05-14T22:48:37.568Z,100743.78
2023-05-14T22:51:04.968Z,100738.56
2023-05-14T22:53:34.658Z,100724.03
2023-05-14T22:56:02.564Z,100709.66
2023-05-14T22:58:30.035Z,100716.88
2023-05-14T23:00:57.765Z,100701.72
2023-05-14T23:03:26.590Z,100709.72
2023-05-14T23:05:53.916Z,100708.59
2023-05-14T23:08:21.101Z,100725.13
2023-05-14T23:10:48.401Z,100716.56
2023-05-14T23:13:15.887Z,100715.81
2023-05-14T23:15:45.618Z,100747.59
2023-05-14T23:18:14.434Z,100728.78
2023-05-14T23:20:43.956Z,100729.81
2023-05-14T23:23:11.467Z,100711.59
2023-05-14T23:25:39.988Z,100704.31
2023-05-14T23:28:07.726Z,100710.44
2023-05-14T23:30:35.140Z,100695.84
2023-05-14T23:33:02.673Z,100702.59
2023-05-14T23:35:29.898Z,100715.81
2023-05-14T23:37:58.838Z,100706.31
2023-05-14T23:40:26.107Z,100719.56
2023-05-14T23:42:53.618Z,100736.50
2023-05-14T23:45:21.240Z,100735.63
2023-05-14T23:47:48.984Z,100720.31
2023-05-14T23:50:16.204Z,100730.94
2023-05-14T23:52:45.213Z,100732.13
2023-05-14T23:55:14.528Z,100724.72
2023-05-14T23:57:42.007Z,100731.50
